sensor_id;sensor_type;location;lat;lon;timestamp;temperature;humidity
9542;DHT22;4809;48.224;8.572;2023-02-18T11:00:59;11.30;99.90
9542;DHT22;4809;48.224;8.572;2023-02-18T11:03:46;11.30;99.90
9542;DHT22;4809;48.224;8.572;2023-02-18T11:08:46;11.40;99.90
9542;DHT22;4809;48.224;8.572;2023-02-18T11:11:17;11.40;99.90
9542;DHT22;4809;48.224;8.572;2023-02-18T11:13:55;11.40;99.70
9542;DHT22;4809;48.224;8.572;2023-02-18T11:16:23;11.50;99.30
9542;DHT22;4809;48.224;8.572;2023-02-18T11:19:00;11.60;99.10
9542;DHT22;4809;48.224;8.572;2023-02-18T11:21:36;11.70;98.50
9542;DHT22;4809;48.224;8.572;2023-02-18T11:24:08;11.80;98.50
9542;DHT22;4809;48.224;8.572;2023-02-18T11:26:36;12.10;97.90
9542;DHT22;4809;48.224;8.572;2023-02-18T11:29:23;12.20;98.10
9542;DHT22;4809;48.224;8.572;2023-02-18T11:31:52;12.20;97.80
9542;DHT22;4809;48.224;8.572;2023-02-18T11:34:22;12.30;98.60
9542;DHT22;4809;48.224;8.572;2023-02-18T11:36:51;12.50;97.60
9542;DHT22;4809;48.224;8.572;2023-02-18T11:39:27;12.50;97.60
9542;DHT22;4809;48.224;8.572;2023-02-18T11:42:00;12.60;96.60
9542;DHT22;4809;48.224;8.572;2023-02-18T11:49:28;12.40;96.20
9542;DHT22;4809;48.224;8.572;2023-02-18T11:51:54;12.30;95.90
9542;DHT22;4809;48.224;8.572;2023-02-18T11:54:29;12.30;95.20
9542;DHT22;4809;48.224;8.572;2023-02-18T11:56:59;12.20;96.00
9542;DHT22;4809;48.224;8.572;2023-02-18T11:59:26;12.20;95.10
9542;DHT22;4809;48.224;8.572;2023-02-18T12:02:35;12.20;95.20
9542;DHT22;4809;48.224;8.572;2023-02-18T12:05:07;12.10;94.30
9542;DHT22;4809;48.224;8.572;2023-02-18T12:07:51;12.00;93.60
9542;DHT22;4809;48.224;8.572;2023-02-18T12:10:34;11.90;94.00
9542;DHT22;4809;48.224;8.572;2023-02-18T12:24:32;11.80;94.80
9542;DHT22;4809;48.224;8.572;2023-02-18T12:38:54;11.80;94.30
9542;DHT22;4809;48.224;8.572;2023-02-18T12:44:54;11.80;94.10
9542;DHT22;4809;48.224;8.572;2023-02-18T12:50:35;11.90;92.80
9542;DHT22;4809;48.224;8.572;2023-02-18T13:09:50;12.70;91.30
9542;DHT22;4809;48.224;8.572;2023-02-18T13:15:18;13.40;90.00
9542;DHT22;4809;48.224;8.572;2023-02-18T13:17:45;14.00;86.50
9542;DHT22;4809;48.224;8.572;2023-02-18T13:20:24;14.60;84.80
9542;DHT22;4809;48.224;8.572;2023-02-18T13:22:53;15.10;80.80
9542;DHT22;4809;48.224;8.572;2023-02-18T13:25:20;15.10;78.10
9542;DHT22;4809;48.224;8.572;2023-02-18T13:27:59;15.00;76.80
9542;DHT22;4809;48.224;8.572;2023-02-18T13:30:47;14.60;78.80
9542;DHT22;4809;48.224;8.572;2023-02-18T13:41:37;15.80;72.40
9542;DHT22;4809;48.224;8.572;2023-02-18T13:46:57;15.80;69.70
9542;DHT22;4809;48.224;8.572;2023-02-18T13:49:26;15.70;72.20
9542;DHT22;4809;48.224;8.572;2023-02-18T13:51:57;16.60;65.30
9542;DHT22;4809;48.224;8.572;2023-02-18T13:54:45;17.30;62.80
9542;DHT22;4809;48.224;8.572;2023-02-18T13:57:15;18.70;57.30
9542;DHT22;4809;48.224;8.572;2023-02-18T13:59:57;18.40;56.20
9542;DHT22;4809;48.224;8.572;2023-02-18T14:04:56;18.70;56.60
9542;DHT22;4809;48.224;8.572;2023-02-18T14:10:04;16.90;60.00
9542;DHT22;4809;48.224;8.572;2023-02-18T14:20:45;15.50;61.70
9542;DHT22;4809;48.224;8.572;2023-02-18T14:26:05;14.20;68.90
9542;DHT22;4809;48.224;8.572;2023-02-18T14:51:18;13.50;75.00
9542;DHT22;4809;48.224;8.572;2023-02-18T14:53:45;13.20;76.60
9542;DHT22;4809;48.224;8.572;2023-02-18T14:56:14;13.00;78.10
9542;DHT22;4809;48.224;8.572;2023-02-18T14:59:03;12.90;79.60
9542;DHT22;4809;48.224;8.572;2023-02-18T15:01:34;13.10;79.70
9542;DHT22;4809;48.224;8.572;2023-02-18T15:04:01;13.30;77.90
9542;DHT22;4809;48.224;8.572;2023-02-18T15:06:29;13.10;77.40
9542;DHT22;4809;48.224;8.572;2023-02-18T15:08:56;12.90;78.80
9542;DHT22;4809;48.224;8.572;2023-02-18T15:11:38;12.80;80.80
9542;DHT22;4809;48.224;8.572;2023-02-18T15:14:14;12.90;80.20
9542;DHT22;4809;48.224;8.572;2023-02-18T15:16:41;12.90;81.30
9542;DHT22;4809;48.224;8.572;2023-02-18T15:19:16;12.70;80.40
9542;DHT22;4809;48.224;8.572;2023-02-18T15:21:49;12.40;82.90
9542;DHT22;4809;48.224;8.572;2023-02-18T15:24:37;12.30;83.80
9542;DHT22;4809;48.224;8.572;2023-02-18T15:27:17;12.70;81.70
9542;DHT22;4809;48.224;8.572;2023-02-18T15:29:49;12.60;82.80
9542;DHT22;4809;48.224;8.572;2023-02-18T15:34:44;12.10;86.20
9542;DHT22;4809;48.224;8.572;2023-02-18T15:37:14;12.00;88.50
9542;DHT22;4809;48.224;8.572;2023-02-18T15:39:41;11.90;88.50
9542;DHT22;4809;48.224;8.572;2023-02-18T15:42:22;11.90;89.70
9542;DHT22;4809;48.224;8.572;2023-02-18T15:44:54;11.80;90.10
9542;DHT22;4809;48.224;8.572;2023-02-18T15:47:20;11.90;90.50
9542;DHT22;4809;48.224;8.572;2023-02-18T15:49:53;11.90;90.40
9542;DHT22;4809;48.224;8.572;2023-02-18T15:52:33;12.60;88.00
9542;DHT22;4809;48.224;8.572;2023-02-18T15:55:10;12.50;88.00
9542;DHT22;4809;48.224;8.572;2023-02-18T15:57:37;12.30;87.90
9542;DHT22;4809;48.224;8.572;2023-02-18T16:00:28;12.10;89.50
9542;DHT22;4809;48.224;8.572;2023-02-18T16:03:08;12.00;89.70
9542;DHT22;4809;48.224;8.572;2023-02-18T16:05:37;11.90;89.60
9542;DHT22;4809;48.224;8.572;2023-02-18T16:08:21;11.70;90.30
9542;DHT22;4809;48.224;8.572;2023-02-18T16:10:58;11.60;91.00
9542;DHT22;4809;48.224;8.572;2023-02-18T16:13:25;11.50;91.70
9542;DHT22;4809;48.224;8.572;2023-02-18T16:15:51;11.30;91.90
9542;DHT22;4809;48.224;8.572;2023-02-18T16:18:28;11.30;92.50
9542;DHT22;4809;48.224;8.572;2023-02-18T16:23:42;11.20;93.10
9542;DHT22;4809;48.224;8.572;2023-02-18T16:26:28;11.20;93.50
9542;DHT22;4809;48.224;8.572;2023-02-18T16:29:03;11.10;93.50
9542;DHT22;4809;48.224;8.572;2023-02-18T16:31:29;11.00;94.10
9542;DHT22;4809;48.224;8.572;2023-02-18T16:33:55;11.00;94.40
9542;DHT22;4809;48.224;8.572;2023-02-18T16:36:22;10.90;94.90
9542;DHT22;4809;48.224;8.572;2023-02-18T16:38:48;10.90;95.30
9542;DHT22;4809;48.224;8.572;2023-02-18T16:41:14;10.80;95.50
9542;DHT22;4809;48.224;8.572;2023-02-18T16:43:40;10.70;96.30
9542;DHT22;4809;48.224;8.572;2023-02-18T16:46:17;10.60;96.70
9542;DHT22;4809;48.224;8.572;2023-02-18T16:48:45;10.50;97.00
9542;DHT22;4809;48.224;8.572;2023-02-18T16:53:45;10.30;97.70
9542;DHT22;4809;48.224;8.572;2023-02-18T16:56:17;10.20;98.00
9542;DHT22;4809;48.224;8.572;2023-02-18T16:58:43;10.20;98.20
9542;DHT22;4809;48.224;8.572;2023-02-18T17:01:35;10.10;98.40
9542;DHT22;4809;48.224;8.572;2023-02-18T17:04:03;10.10;98.80
9542;DHT22;4809;48.224;8.572;2023-02-18T17:06:30;10.00;98.90
9542;DHT22;4809;48.224;8.572;2023-02-18T17:08:56;10.00;99.20
9542;DHT22;4809;48.224;8.572;2023-02-18T17:11:28;10.00;99.10
9542;DHT22;4809;48.224;8.572;2023-02-18T17:13:54;9.90;99.50
9542;DHT22;4809;48.224;8.572;2023-02-18T17:16:22;9.80;99.70
9542;DHT22;4809;48.224;8.572;2023-02-18T17:18:48;9.80;99.90
9542;DHT22;4809;48.224;8.572;2023-02-18T17:21:16;9.80;99.90
9542;DHT22;4809;48.224;8.572;2023-02-18T17:23:43;9.80;99.90
9542;DHT22;4809;48.224;8.572;2023-02-18T17:26:17;9.80;99.90
9542;DHT22;4809;48.224;8.572;2023-02-18T17:28:42;9.70;99.90
9542;DHT22;4809;48.224;8.572;2023-02-18T17:31:12;9.70;99.90
9542;DHT22;4809;48.224;8.572;2023-02-18T17:33:38;9.70;99.90
9542;DHT22;4809;48.224;8.572;2023-02-18T17:36:04;9.60;99.90
9542;DHT22;4809;48.224;8.572;2023-02-18T17:38:30;9.60;99.90
9542;DHT22;4809;48.224;8.572;2023-02-18T17:40:57;9.50;99.90
9542;DHT22;4809;48.224;8.572;2023-02-18T17:43:23;9.50;99.90
9542;DHT22;4809;48.224;8.572;2023-02-18T17:45:52;9.40;99.90
9542;DHT22;4809;48.224;8.572;2023-02-18T17:48:18;9.30;99.90
9542;DHT22;4809;48.224;8.572;2023-02-18T17:50:44;9.30;99.90
9542;DHT22;4809;48.224;8.572;2023-02-18T17:53:14;9.20;99.90
9542;DHT22;4809;48.224;8.572;2023-02-18T17:55:40;9.20;99.90
9542;DHT22;4809;48.224;8.572;2023-02-18T17:58:07;9.20;99.90
9542;DHT22;4809;48.224;8.572;2023-02-18T18:00:36;9.20;99.90
9542;DHT22;4809;48.224;8.572;2023-02-18T18:03:03;9.20;99.90
9542;DHT22;4809;48.224;8.572;2023-02-18T18:05:33;9.20;99.90
9542;DHT22;4809;48.224;8.572;2023-02-18T18:08:00;9.30;99.90
9542;DHT22;4809;48.224;8.572;2023-02-18T18:10:29;9.30;99.90
9542;DHT22;4809;48.224;8.572;2023-02-18T18:13:01;9.30;99.90
9542;DHT22;4809;48.224;8.572;2023-02-18T18:15:30;9.20;99.90
9542;DHT22;4809;48.224;8.572;2023-02-18T18:17:57;9.20;99.90
9542;DHT22;4809;48.224;8.572;2023-02-18T18:20:24;9.20;99.90
9542;DHT22;4809;48.224;8.572;2023-02-18T18:22:51;9.10;99.90
9542;DHT22;4809;48.224;8.572;2023-02-18T18:25:27;9.10;99.90
9542;DHT22;4809;48.224;8.572;2023-02-18T18:27:53;9.10;99.90
9542;DHT22;4809;48.224;8.572;2023-02-18T18:30:21;9.10;99.90
9542;DHT22;4809;48.224;8.572;2023-02-18T18:32:47;9.10;99.90
9542;DHT22;4809;48.224;8.572;2023-02-18T18:35:26;9.10;99.90
9542;DHT22;4809;48.224;8.572;2023-02-18T18:37:52;9.10;99.90
9542;DHT22;4809;48.224;8.572;2023-02-18T18:40:19;9.20;99.90
9542;DHT22;4809;48.224;8.572;2023-02-18T18:42:46;9.20;99.90
9542;DHT22;4809;48.224;8.572;2023-02-18T18:45:25;9.30;99.90
9542;DHT22;4809;48.224;8.572;2023-02-18T18:47:51;9.30;99.90
9542;DHT22;4809;48.224;8.572;2023-02-18T18:50:18;9.30;99.90
9542;DHT22;4809;48.224;8.572;2023-02-18T18:52:45;9.30;99.90
9542;DHT22;4809;48.224;8.572;2023-02-18T18:55:40;9.30;99.90
9542;DHT22;4809;48.224;8.572;2023-02-18T18:58:05;9.30;99.90
9542;DHT22;4809;48.224;8.572;2023-02-18T19:00:40;9.30;99.90
9542;DHT22;4809;48.224;8.572;2023-02-18T19:03:09;9.20;99.90
9542;DHT22;4809;48.224;8.572;2023-02-18T19:05:38;9.20;99.90
9542;DHT22;4809;48.224;8.572;2023-02-18T19:08:05;9.20;99.90
9542;DHT22;4809;48.224;8.572;2023-02-18T19:10:36;9.20;99.90
9542;DHT22;4809;48.224;8.572;2023-02-18T19:13:15;9.20;99.90
9542;DHT22;4809;48.224;8.572;2023-02-18T19:15:41;9.20;99.90
9542;DHT22;4809;48.224;8.572;2023-02-18T19:18:19;9.20;99.90
9542;DHT22;4809;48.224;8.572;2023-02-18T19:20:46;9.20;99.90
9542;DHT22;4809;48.224;8.572;2023-02-18T19:23:12;9.20;99.90
9542;DHT22;4809;48.224;8.572;2023-02-18T19:25:38;9.20;99.90
9542;DHT22;4809;48.224;8.572;2023-02-18T19:28:05;9.30;99.90
9542;DHT22;4809;48.224;8.572;2023-02-18T19:30:33;9.20;99.90
9542;DHT22;4809;48.224;8.572;2023-02-18T19:33:00;9.30;99.90
9542;DHT22;4809;48.224;8.572;2023-02-18T19:35:27;9.30;99.90
9542;DHT22;4809;48.224;8.572;2023-02-18T19:37:53;9.30;99.90
9542;DHT22;4809;48.224;8.572;2023-02-18T19:40:25;9.30;99.90
9542;DHT22;4809;48.224;8.572;2023-02-18T19:42:52;9.30;99.90
9542;DHT22;4809;48.224;8.572;2023-02-18T19:45:18;9.40;99.90
9542;DHT22;4809;48.224;8.572;2023-02-18T19:47:44;9.40;99.90
9542;DHT22;4809;48.224;8.572;2023-02-18T19:50:13;9.40;99.90
9542;DHT22;4809;48.224;8.572;2023-02-18T19:52:39;9.40;99.90
9542;DHT22;4809;48.224;8.572;2023-02-18T19:55:06;9.40;99.90
9542;DHT22;4809;48.224;8.572;2023-02-18T19:57:32;9.40;99.90
9542;DHT22;4809;48.224;8.572;2023-02-18T19:59:59;9.40;99.90
9542;DHT22;4809;48.224;8.572;2023-02-18T20:02:25;9.40;99.90
9542;DHT22;4809;48.224;8.572;2023-02-18T20:04:51;9.40;99.90
9542;DHT22;4809;48.224;8.572;2023-02-18T20:07:20;9.40;99.90
9542;DHT22;4809;48.224;8.572;2023-02-18T20:09:46;9.40;99.90
9542;DHT22;4809;48.224;8.572;2023-02-18T20:12:12;9.40;99.90
9542;DHT22;4809;48.224;8.572;2023-02-18T20:14:39;9.40;99.90
9542;DHT22;4809;48.224;8.572;2023-02-18T20:17:05;9.40;99.90
9542;DHT22;4809;48.224;8.572;2023-02-18T20:19:31;9.40;99.90
9542;DHT22;4809;48.224;8.572;2023-02-18T20:21:57;9.40;99.90
9542;DHT22;4809;48.224;8.572;2023-02-18T20:24:25;9.40;99.90
9542;DHT22;4809;48.224;8.572;2023-02-18T20:26:51;9.50;99.90
9542;DHT22;4809;48.224;8.572;2023-02-18T20:29:16;9.50;99.90
9542;DHT22;4809;48.224;8.572;2023-02-18T20:31:46;9.50;99.90
9542;DHT22;4809;48.224;8.572;2023-02-18T20:34:13;9.50;99.90
9542;DHT22;4809;48.224;8.572;2023-02-18T20:36:38;9.50;99.90
9542;DHT22;4809;48.224;8.572;2023-02-18T20:39:06;9.50;99.90
9542;DHT22;4809;48.224;8.572;2023-02-18T20:41:31;9.50;99.90
9542;DHT22;4809;48.224;8.572;2023-02-18T20:43:58;9.50;99.90
9542;DHT22;4809;48.224;8.572;2023-02-18T20:46:24;9.50;99.90
9542;DHT22;4809;48.224;8.572;2023-02-18T20:48:50;9.50;99.90
9542;DHT22;4809;48.224;8.572;2023-02-18T20:51:18;9.40;99.90
9542;DHT22;4809;48.224;8.572;2023-02-18T20:53:45;9.50;99.90
9542;DHT22;4809;48.224;8.572;2023-02-18T20:56:11;9.40;99.90
9542;DHT22;4809;48.224;8.572;2023-02-18T20:58:37;9.40;99.90
9542;DHT22;4809;48.224;8.572;2023-02-18T21:01:06;9.50;99.90
9542;DHT22;4809;48.224;8.572;2023-02-18T21:03:32;9.50;99.90
9542;DHT22;4809;48.224;8.572;2023-02-18T21:06:24;9.50;99.90
9542;DHT22;4809;48.224;8.572;2023-02-18T21:08:48;9.40;99.90
9542;DHT22;4809;48.224;8.572;2023-02-18T21:11:17;9.50;99.90
9542;DHT22;4809;48.224;8.572;2023-02-18T21:13:45;9.50;99.90
9542;DHT22;4809;48.224;8.572;2023-02-18T21:16:11;9.50;99.90
9542;DHT22;4809;48.224;8.572;2023-02-18T21:18:37;9.50;99.90
9542;DHT22;4809;48.224;8.572;2023-02-18T21:21:05;9.50;99.90
9542;DHT22;4809;48.224;8.572;2023-02-18T21:23:31;9.50;99.90
9542;DHT22;4809;48.224;8.572;2023-02-18T21:26:12;9.50;99.90
9542;DHT22;4809;48.224;8.572;2023-02-18T21:28:40;9.50;99.90
9542;DHT22;4809;48.224;8.572;2023-02-18T21:31:14;9.50;99.90
9542;DHT22;4809;48.224;8.572;2023-02-18T21:33:40;9.50;99.90
9542;DHT22;4809;48.224;8.572;2023-02-18T21:36:06;9.50;99.90
9542;DHT22;4809;48.224;8.572;2023-02-18T21:38:32;9.50;99.90
9542;DHT22;4809;48.224;8.572;2023-02-18T21:40:58;9.40;99.90
9542;DHT22;4809;48.224;8.572;2023-02-18T21:43:24;9.40;99.90
9542;DHT22;4809;48.224;8.572;2023-02-18T21:45:51;9.30;99.90
9542;DHT22;4809;48.224;8.572;2023-02-18T21:48:16;9.30;99.90
9542;DHT22;4809;48.224;8.572;2023-02-18T21:51:01;9.20;99.90
9542;DHT22;4809;48.224;8.572;2023-02-18T21:53:26;9.20;99.90
9542;DHT22;4809;48.224;8.572;2023-02-18T21:55:52;9.20;99.90
9542;DHT22;4809;48.224;8.572;2023-02-18T21:58:18;9.20;99.90
9542;DHT22;4809;48.224;8.572;2023-02-18T22:00:43;9.20;99.90
9542;DHT22;4809;48.224;8.572;2023-02-18T22:03:10;9.30;99.90
9542;DHT22;4809;48.224;8.572;2023-02-18T22:05:38;9.20;99.90
9542;DHT22;4809;48.224;8.572;2023-02-18T22:08:04;9.20;99.90
9542;DHT22;4809;48.224;8.572;2023-02-18T22:10:30;9.20;99.90
9542;DHT22;4809;48.224;8.572;2023-02-18T22:12:55;9.20;99.90
9542;DHT22;4809;48.224;8.572;2023-02-18T22:15:21;9.30;99.90
9542;DHT22;4809;48.224;8.572;2023-02-18T22:17:46;9.30;99.90
9542;DHT22;4809;48.224;8.572;2023-02-18T22:20:12;9.30;99.90
9542;DHT22;4809;48.224;8.572;2023-02-18T22:22:38;9.20;99.90
9542;DHT22;4809;48.224;8.572;2023-02-18T22:25:04;9.20;99.90
9542;DHT22;4809;48.224;8.572;2023-02-18T22:27:30;9.20;99.90
9542;DHT22;4809;48.224;8.572;2023-02-18T22:29:55;9.20;99.90
9542;DHT22;4809;48.224;8.572;2023-02-18T22:32:21;9.20;99.90
9542;DHT22;4809;48.224;8.572;2023-02-18T22:34:46;9.10;99.90
9542;DHT22;4809;48.224;8.572;2023-02-18T22:37:12;9.00;99.90
9542;DHT22;4809;48.224;8.572;2023-02-18T22:39:38;8.90;99.90
9542;DHT22;4809;48.224;8.572;2023-02-18T22:42:04;9.00;99.90
9542;DHT22;4809;48.224;8.572;2023-02-18T22:44:30;9.00;99.90
9542;DHT22;4809;48.224;8.572;2023-02-18T22:46:56;9.00;99.90
9542;DHT22;4809;48.224;8.572;2023-02-18T22:49:22;9.10;99.90
9542;DHT22;4809;48.224;8.572;2023-02-18T22:51:51;9.10;99.90
9542;DHT22;4809;48.224;8.572;2023-02-18T22:54:17;9.20;99.90
9542;DHT22;4809;48.224;8.572;2023-02-18T22:56:44;9.10;99.90
9542;DHT22;4809;48.224;8.572;2023-02-18T22:59:12;9.10;99.90
9542;DHT22;4809;48.224;8.572;2023-02-18T23:01:40;9.10;99.90
9542;DHT22;4809;48.224;8.572;2023-02-18T23:04:08;9.10;99.90
9542;DHT22;4809;48.224;8.572;2023-02-18T23:06:36;8.90;99.90
9542;DHT22;4809;48.224;8.572;2023-02-18T23:09:03;8.90;99.90
9542;DHT22;4809;48.224;8.572;2023-02-18T23:11:29;8.90;99.90
9542;DHT22;4809;48.224;8.572;2023-02-18T23:13:55;8.90;99.90
9542;DHT22;4809;48.224;8.572;2023-02-18T23:16:39;8.90;99.90
9542;DHT22;4809;48.224;8.572;2023-02-18T23:19:25;9.00;99.90
9542;DHT22;4809;48.224;8.572;2023-02-18T23:21:51;8.90;99.90
9542;DHT22;4809;48.224;8.572;2023-02-18T23:24:17;8.70;99.90
9542;DHT22;4809;48.224;8.572;2023-02-18T23:26:43;8.70;99.90
9542;DHT22;4809;48.224;8.572;2023-02-18T23:29:09;8.70;99.90
9542;DHT22;4809;48.224;8.572;2023-02-18T23:31:37;8.70;99.90
9542;DHT22;4809;48.224;8.572;2023-02-18T23:34:04;8.70;99.90
9542;DHT22;4809;48.224;8.572;2023-02-18T23:36:31;8.60;99.90
9542;DHT22;4809;48.224;8.572;2023-02-18T23:39:00;8.60;99.90
9542;DHT22;4809;48.224;8.572;2023-02-18T23:41:27;8.70;99.90
9542;DHT22;4809;48.224;8.572;2023-02-18T23:43:53;8.80;99.90
9542;DHT22;4809;48.224;8.572;2023-02-18T23:46:21;8.80;99.90
9542;DHT22;4809;48.224;8.572;2023-02-18T23:48:47;8.80;99.90
9542;DHT22;4809;48.224;8.572;2023-02-18T23:51:16;8.90;99.90
9542;DHT22;4809;48.224;8.572;2023-02-18T23:53:42;8.90;99.90
9542;DHT22;4809;48.224;8.572;2023-02-18T23:56:14;8.80;99.90
9542;DHT22;4809;48.224;8.572;2023-02-18T23:58:43;8.90;99.90
